SAS1245 LOWI-LOWK
Flight info
| Callsign | SAS1245 |
|---|---|
| Flight time | 0h 26m |
| Altitude | 25000 |
| Route | OBEDI DCT TISMA TISMA1T |
| Aircraft | B738/M-SDE2E3FGHIRWXY/LB1 |
Departure
| Time | 2026-05-08 13:04 |
|---|---|
| Airport | Innsbruck Airport (LOWI) |
Arrival
| Time | 2026-05-08 13:31 |
|---|---|
| Airport | Klagenfurt Airport (LOWK) |
| Time | Latitude | Longitude | Altitude | Speed | Heading |
|---|---|---|---|---|---|
| 2026-05-08 12:52 | 47.25838 | 11.35176 | 1894 ft | 0 kts | 171° |
| 2026-05-08 12:57 | 47.25849 | 11.35173 | 1903 ft | 4 kts | 170° |
| 2026-05-08 12:57 | 47.25876 | 11.35167 | 1889 ft | 4 kts | 174° |
| 2026-05-08 12:57 | 47.25890 | 11.35169 | 1896 ft | 2 kts | 240° |
| 2026-05-08 12:58 | 47.25893 | 11.35184 | 1893 ft | 2 kts | 262° |
| 2026-05-08 12:58 | 47.25893 | 11.35186 | 1893 ft | 0 kts | 262° |
| 2026-05-08 12:59 | 47.25890 | 11.35152 | 1898 ft | 9 kts | 262° |
| 2026-05-08 13:00 | 47.25876 | 11.35024 | 1897 ft | 16 kts | 260° |
| 2026-05-08 13:00 | 47.25855 | 11.34838 | 1903 ft | 19 kts | 261° |
| 2026-05-08 13:00 | 47.25835 | 11.34647 | 1920 ft | 19 kts | 261° |
| 2026-05-08 13:00 | 47.25815 | 11.34462 | 1903 ft | 18 kts | 261° |
| 2026-05-08 13:01 | 47.25795 | 11.34283 | 1899 ft | 17 kts | 261° |
| 2026-05-08 13:01 | 47.25776 | 11.34110 | 1895 ft | 17 kts | 261° |
| 2026-05-08 13:01 | 47.25784 | 11.33945 | 1898 ft | 16 kts | 294° |
| 2026-05-08 13:01 | 47.25844 | 11.33808 | 1894 ft | 16 kts | 305° |
| 2026-05-08 13:02 | 47.25909 | 11.33677 | 1903 ft | 16 kts | 307° |
| 2026-05-08 13:02 | 47.25927 | 11.33529 | 1899 ft | 15 kts | 261° |
| 2026-05-08 13:02 | 47.25909 | 11.33372 | 1898 ft | 15 kts | 261° |
| 2026-05-08 13:02 | 47.25881 | 11.33227 | 1893 ft | 15 kts | 219° |
| 2026-05-08 13:03 | 47.25836 | 11.33114 | 1892 ft | 12 kts | 269° |
| 2026-05-08 13:03 | 47.25879 | 11.33113 | 1898 ft | 9 kts | 61° |
| 2026-05-08 13:03 | 47.25893 | 11.33214 | 1898 ft | 11 kts | 79° |
| 2026-05-08 13:03 | 47.25923 | 11.33485 | 1892 ft | 61 kts | 81° |
| 2026-05-08 13:04 | 47.26033 | 11.34510 | 1897 ft | 139 kts | 81° |
| 2026-05-08 13:04 | 47.26201 | 11.36177 | 2265 ft | 174 kts | 80° |
| 2026-05-08 13:04 | 47.26390 | 11.37993 | 3174 ft | 185 kts | 80° |
| 2026-05-08 13:04 | 47.26591 | 11.39890 | 4095 ft | 199 kts | 79° |
| 2026-05-08 13:05 | 47.26821 | 11.42071 | 4472 ft | 232 kts | 79° |
| 2026-05-08 13:05 | 47.27092 | 11.44542 | 4933 ft | 252 kts | 78° |
| 2026-05-08 13:05 | 47.27630 | 11.47100 | 5486 ft | 270 kts | 64° |
| 2026-05-08 13:05 | 47.28420 | 11.49610 | 6539 ft | 272 kts | 65° |
| 2026-05-08 13:06 | 47.29188 | 11.52176 | 7585 ft | 278 kts | 66° |
| 2026-05-08 13:06 | 47.29958 | 11.54838 | 8570 ft | 284 kts | 68° |
| 2026-05-08 13:06 | 47.30729 | 11.57543 | 9191 ft | 291 kts | 69° |
| 2026-05-08 13:06 | 47.31512 | 11.60306 | 9906 ft | 298 kts | 69° |
| 2026-05-08 13:07 | 47.32331 | 11.63170 | 10772 ft | 307 kts | 68° |
| 2026-05-08 13:07 | 47.33173 | 11.66092 | 11690 ft | 314 kts | 68° |
| 2026-05-08 13:07 | 47.34038 | 11.69092 | 12542 ft | 321 kts | 67° |
| 2026-05-08 13:07 | 47.34907 | 11.72114 | 13505 ft | 323 kts | 67° |
| 2026-05-08 13:08 | 47.35794 | 11.75199 | 14286 ft | 330 kts | 67° |
| 2026-05-08 13:08 | 47.36691 | 11.78322 | 15100 ft | 333 kts | 67° |
| 2026-05-08 13:08 | 47.37604 | 11.81508 | 15794 ft | 340 kts | 67° |
| 2026-05-08 13:08 | 47.38530 | 11.84747 | 16457 ft | 346 kts | 67° |
| 2026-05-08 13:09 | 47.39477 | 11.88063 | 17019 ft | 358 kts | 67° |
| 2026-05-08 13:09 | 47.40480 | 11.91574 | 17245 ft | 378 kts | 67° |
| 2026-05-08 13:09 | 47.41508 | 11.95184 | 17806 ft | 386 kts | 66° |
| 2026-05-08 13:09 | 47.42548 | 11.98844 | 18495 ft | 389 kts | 67° |
| 2026-05-08 13:10 | 47.43367 | 12.02665 | 19071 ft | 394 kts | 84° |
| 2026-05-08 13:10 | 47.43293 | 12.06655 | 19680 ft | 395 kts | 97° |
| 2026-05-08 13:10 | 47.42980 | 12.10693 | 20257 ft | 399 kts | 98° |
| 2026-05-08 13:10 | 47.42632 | 12.14800 | 20760 ft | 404 kts | 98° |
| 2026-05-08 13:11 | 47.42276 | 12.18946 | 21272 ft | 408 kts | 98° |
| 2026-05-08 13:11 | 47.41923 | 12.23148 | 21851 ft | 412 kts | 98° |
| 2026-05-08 13:11 | 47.41577 | 12.27353 | 22380 ft | 415 kts | 98° |
| 2026-05-08 13:11 | 47.41234 | 12.31595 | 22819 ft | 420 kts | 98° |
| 2026-05-08 13:12 | 47.40891 | 12.35901 | 23305 ft | 424 kts | 98° |
| 2026-05-08 13:12 | 47.40546 | 12.40240 | 23777 ft | 427 kts | 98° |
| 2026-05-08 13:12 | 47.40198 | 12.44618 | 24198 ft | 430 kts | 98° |
| 2026-05-08 13:12 | 47.39847 | 12.49011 | 24565 ft | 434 kts | 99° |
| 2026-05-08 13:13 | 47.39610 | 12.51951 | 24822 ft | 436 kts | 99° |
| 2026-05-08 13:13 | 47.39253 | 12.56406 | 25046 ft | 439 kts | 99° |
| 2026-05-08 13:13 | 47.38761 | 12.62448 | 25049 ft | 456 kts | 99° |
| 2026-05-08 13:13 | 47.38373 | 12.67137 | 25038 ft | 465 kts | 99° |
| 2026-05-08 13:14 | 47.37967 | 12.71914 | 25050 ft | 473 kts | 99° |
| 2026-05-08 13:14 | 47.37578 | 12.76675 | 25029 ft | 460 kts | 99° |
| 2026-05-08 13:14 | 47.37329 | 12.79765 | 25017 ft | 452 kts | 99° |
| 2026-05-08 13:14 | 47.36954 | 12.84360 | 25035 ft | 451 kts | 99° |
| 2026-05-08 13:15 | 47.36574 | 12.88958 | 25015 ft | 454 kts | 99° |
| 2026-05-08 13:15 | 47.36187 | 12.93591 | 25042 ft | 456 kts | 99° |
| 2026-05-08 13:15 | 47.35792 | 12.98245 | 25015 ft | 458 kts | 99° |
| 2026-05-08 13:15 | 47.35403 | 13.02828 | 25018 ft | 443 kts | 99° |
| 2026-05-08 13:16 | 47.35029 | 13.07256 | 25024 ft | 427 kts | 99° |
| 2026-05-08 13:16 | 47.34665 | 13.11529 | 25019 ft | 413 kts | 99° |
| 2026-05-08 13:16 | 47.34304 | 13.15714 | 24508 ft | 413 kts | 99° |
| 2026-05-08 13:16 | 47.33936 | 13.19975 | 23330 ft | 429 kts | 99° |
| 2026-05-08 13:17 | 47.33550 | 13.24408 | 22378 ft | 436 kts | 98° |
| 2026-05-08 13:17 | 47.33104 | 13.28801 | 21816 ft | 429 kts | 104° |
| 2026-05-08 13:17 | 47.32230 | 13.32931 | 21144 ft | 417 kts | 114° |
| 2026-05-08 13:17 | 47.30958 | 13.36728 | 20291 ft | 410 kts | 123° |
| 2026-05-08 13:18 | 47.29316 | 13.40182 | 19604 ft | 410 kts | 128° |
| 2026-05-08 13:18 | 47.27641 | 13.43470 | 19191 ft | 405 kts | 128° |
| 2026-05-08 13:18 | 47.25955 | 13.46786 | 18716 ft | 402 kts | 128° |
| 2026-05-08 13:18 | 47.24288 | 13.50078 | 18156 ft | 401 kts | 128° |
| 2026-05-08 13:19 | 47.22631 | 13.53364 | 17685 ft | 397 kts | 128° |
| 2026-05-08 13:19 | 47.20995 | 13.56618 | 17194 ft | 393 kts | 128° |
| 2026-05-08 13:19 | 47.19375 | 13.59842 | 16715 ft | 390 kts | 128° |
| 2026-05-08 13:19 | 47.17774 | 13.63026 | 16231 ft | 386 kts | 127° |
| 2026-05-08 13:20 | 47.16203 | 13.66152 | 15781 ft | 383 kts | 127° |
| 2026-05-08 13:20 | 47.14621 | 13.69293 | 15297 ft | 380 kts | 127° |
| 2026-05-08 13:20 | 47.13056 | 13.72399 | 14852 ft | 377 kts | 127° |
| 2026-05-08 13:20 | 47.11496 | 13.75492 | 14378 ft | 375 kts | 127° |
| 2026-05-08 13:21 | 47.09948 | 13.78557 | 13926 ft | 372 kts | 127° |
| 2026-05-08 13:21 | 47.08409 | 13.81601 | 13413 ft | 369 kts | 127° |
| 2026-05-08 13:21 | 47.06881 | 13.84619 | 12933 ft | 367 kts | 127° |
| 2026-05-08 13:21 | 47.05368 | 13.87606 | 12453 ft | 364 kts | 127° |
| 2026-05-08 13:22 | 47.03866 | 13.90574 | 11996 ft | 361 kts | 127° |
| 2026-05-08 13:22 | 47.02372 | 13.93517 | 11576 ft | 358 kts | 127° |
| 2026-05-08 13:22 | 47.00907 | 13.96395 | 11196 ft | 352 kts | 128° |
| 2026-05-08 13:22 | 46.99453 | 13.99250 | 10948 ft | 344 kts | 127° |
| 2026-05-08 13:23 | 46.98057 | 14.01989 | 10751 ft | 334 kts | 127° |
| 2026-05-08 13:23 | 46.96673 | 14.04705 | 10601 ft | 324 kts | 127° |
| 2026-05-08 13:23 | 46.95356 | 14.07286 | 10443 ft | 315 kts | 127° |
| 2026-05-08 13:23 | 46.94060 | 14.09821 | 10298 ft | 307 kts | 127° |
| 2026-05-08 13:24 | 46.92799 | 14.12286 | 10173 ft | 298 kts | 127° |
| 2026-05-08 13:24 | 46.91466 | 14.14549 | 10016 ft | 290 kts | 143° |
| 2026-05-08 13:24 | 46.89674 | 14.15807 | 9641 ft | 289 kts | 168° |
| 2026-05-08 13:24 | 46.87675 | 14.16037 | 9156 ft | 287 kts | 181° |
| 2026-05-08 13:25 | 46.85679 | 14.15973 | 8624 ft | 286 kts | 182° |
| 2026-05-08 13:25 | 46.83693 | 14.15895 | 8228 ft | 280 kts | 182° |
| 2026-05-08 13:25 | 46.81800 | 14.15838 | 8072 ft | 265 kts | 181° |
| 2026-05-08 13:25 | 46.80045 | 14.15797 | 7937 ft | 239 kts | 181° |
| 2026-05-08 13:26 | 46.78425 | 14.15763 | 7367 ft | 235 kts | 181° |
| 2026-05-08 13:26 | 46.76774 | 14.15724 | 6642 ft | 238 kts | 182° |
| 2026-05-08 13:26 | 46.75157 | 14.15250 | 6117 ft | 232 kts | 198° |
| 2026-05-08 13:26 | 46.73708 | 14.14582 | 6006 ft | 206 kts | 196° |
| 2026-05-08 13:27 | 46.72388 | 14.14007 | 5591 ft | 195 kts | 196° |
| 2026-05-08 13:27 | 46.71085 | 14.13449 | 5082 ft | 195 kts | 195° |
| 2026-05-08 13:27 | 46.69763 | 14.13018 | 4668 ft | 196 kts | 177° |
| 2026-05-08 13:27 | 46.68577 | 14.13781 | 4380 ft | 192 kts | 135° |
| 2026-05-08 13:28 | 46.67900 | 14.15470 | 4097 ft | 198 kts | 109° |
| 2026-05-08 13:28 | 46.67522 | 14.17392 | 3804 ft | 195 kts | 108° |
| 2026-05-08 13:28 | 46.67151 | 14.19285 | 3545 ft | 194 kts | 107° |
| 2026-05-08 13:28 | 46.66784 | 14.21179 | 3330 ft | 194 kts | 107° |
| 2026-05-08 13:29 | 46.66414 | 14.23029 | 3017 ft | 186 kts | 107° |
| 2026-05-08 13:29 | 46.66064 | 14.24767 | 2793 ft | 171 kts | 107° |
| 2026-05-08 13:29 | 46.65739 | 14.26372 | 2506 ft | 160 kts | 107° |
| 2026-05-08 13:29 | 46.65430 | 14.27902 | 2247 ft | 157 kts | 107° |
| 2026-05-08 13:30 | 46.65131 | 14.29418 | 1999 ft | 155 kts | 107° |
| 2026-05-08 13:30 | 46.64835 | 14.30906 | 1714 ft | 152 kts | 108° |
| 2026-05-08 13:30 | 46.64534 | 14.32391 | 1484 ft | 154 kts | 108° |
| 2026-05-08 13:30 | 46.64264 | 14.33715 | 1462 ft | 108 kts | 106° |
| 2026-05-08 13:31 | 46.64112 | 14.34465 | 1458 ft | 53 kts | 106° |
| 2026-05-08 13:31 | 46.64012 | 14.34962 | 1456 ft | 49 kts | 107° |
| 2026-05-08 13:31 | 46.63936 | 14.35350 | 1459 ft | 12 kts | 99° |
| 2026-05-08 13:31 | 46.63936 | 14.35456 | 1456 ft | 8 kts | 151° |
| 2026-05-08 13:32 | 46.63921 | 14.35413 | 1460 ft | 9 kts | 285° |